createdAt,value
2022-09-12T00:00:37.370Z,99.99
2022-09-12T00:01:37.421Z,99.99
2022-09-12T00:02:37.386Z,99.99
2022-09-12T00:03:37.396Z,99.99
2022-09-12T00:04:37.383Z,99.99
2022-09-12T00:05:37.379Z,99.99
2022-09-12T00:06:37.389Z,99.99
2022-09-12T00:07:37.392Z,99.99
2022-09-12T00:08:37.418Z,99.99
2022-09-12T00:09:37.396Z,99.99
2022-09-12T00:10:37.434Z,99.99
2022-09-12T00:11:37.385Z,99.99
2022-09-12T00:12:37.402Z,99.99
2022-09-12T00:13:41.439Z,99.99
2022-09-12T00:14:37.407Z,99.99
2022-09-12T00:15:37.405Z,99.99
2022-09-12T00:16:37.487Z,99.99
2022-09-12T00:17:37.411Z,99.99
2022-09-12T00:18:37.415Z,99.99
2022-09-12T00:19:37.398Z,99.99
2022-09-12T00:20:37.417Z,99.99
2022-09-12T00:21:37.418Z,99.99
2022-09-12T00:22:37.631Z,99.99
2022-09-12T00:23:37.418Z,99.99
2022-09-12T00:24:37.427Z,99.99
2022-09-12T00:25:37.447Z,99.99
2022-09-12T00:26:37.429Z,99.99
2022-09-12T00:27:37.413Z,99.99
2022-09-12T00:28:45.259Z,99.99
2022-09-12T00:29:45.044Z,99.99
2022-09-12T00:30:44.468Z,99.99
2022-09-12T00:31:37.462Z,99.99
2022-09-12T00:32:37.442Z,99.99
2022-09-12T00:33:37.418Z,99.99
2022-09-12T00:34:37.433Z,99.99
2022-09-12T00:35:37.439Z,99.99
2022-09-12T00:36:37.436Z,99.99
2022-09-12T00:37:37.445Z,99.99
2022-09-12T00:38:37.438Z,99.99
2022-09-12T00:39:37.464Z,99.99
2022-09-12T00:40:45.123Z,99.99
2022-09-12T00:41:37.443Z,99.99
2022-09-12T00:42:44.476Z,99.99
2022-09-12T00:43:45.177Z,99.99
2022-09-12T00:44:37.437Z,99.99
2022-09-12T00:45:37.551Z,99.99
2022-09-12T00:46:37.457Z,99.99
2022-09-12T00:47:37.445Z,99.99
2022-09-12T00:48:37.463Z,99.99
2022-09-12T00:49:37.458Z,99.99
2022-09-12T00:50:37.444Z,99.99
2022-09-12T00:51:37.446Z,99.99
2022-09-12T00:52:37.489Z,99.99
2022-09-12T00:53:37.480Z,99.99
2022-09-12T00:54:37.451Z,99.99
2022-09-12T00:55:37.464Z,99.99
2022-09-12T00:56:37.451Z,99.99
2022-09-12T00:57:37.452Z,99.99
2022-09-12T00:58:37.493Z,99.99
2022-09-12T00:59:37.462Z,99.99
2022-09-12T01:00:37.458Z,99.99
2022-09-12T01:01:37.508Z,99.99
2022-09-12T01:02:37.470Z,99.99
2022-09-12T01:03:37.463Z,99.99
2022-09-12T01:04:37.492Z,99.99
2022-09-12T01:05:37.467Z,99.99
2022-09-12T01:06:37.477Z,99.99
2022-09-12T01:07:40.089Z,99.99
2022-09-12T01:08:37.475Z,99.99
2022-09-12T01:09:37.477Z,99.99
2022-09-12T01:10:37.496Z,99.99
2022-09-12T01:11:37.491Z,99.99
2022-09-12T01:12:37.484Z,99.99
2022-09-12T01:13:37.471Z,99.99
2022-09-12T01:14:37.485Z,99.99
2022-09-12T01:15:37.475Z,99.99
2022-09-12T01:16:37.583Z,99.99
2022-09-12T01:17:37.478Z,99.99
2022-09-12T01:18:37.489Z,99.99
2022-09-12T01:19:37.492Z,99.99
2022-09-12T01:20:37.485Z,99.99
2022-09-12T01:21:37.491Z,99.99
2022-09-12T01:22:37.500Z,99.99
2022-09-12T01:23:37.499Z,99.99
2022-09-12T01:24:37.501Z,99.99
2022-09-12T01:25:37.497Z,99.99
2022-09-12T01:26:37.514Z,99.99
2022-09-12T01:27:37.517Z,99.99
2022-09-12T01:28:37.504Z,99.99
2022-09-12T01:29:37.495Z,99.99
2022-09-12T01:30:37.516Z,99.99
2022-09-12T01:31:37.505Z,99.99
2022-09-12T01:32:37.511Z,99.99
2022-09-12T01:33:37.518Z,99.99
2022-09-12T01:34:37.510Z,99.99
2022-09-12T01:35:37.521Z,99.99
2022-09-12T01:36:37.520Z,99.99
2022-09-12T01:37:37.519Z,99.99
2022-09-12T01:38:37.518Z,99.99
2022-09-12T01:39:37.576Z,99.99
2022-09-12T01:40:37.531Z,99.99
2022-09-12T01:41:37.505Z,99.99
2022-09-12T01:42:37.523Z,99.99
2022-09-12T01:43:37.509Z,99.99
2022-09-12T01:44:37.583Z,99.99
2022-09-12T01:45:37.590Z,99.99
2022-09-12T01:46:37.536Z,99.99
2022-09-12T01:47:37.512Z,99.99
2022-09-12T01:48:37.525Z,99.99
2022-09-12T01:49:37.539Z,99.99
2022-09-12T01:50:37.529Z,99.99
2022-09-12T01:51:37.539Z,99.99
2022-09-12T01:52:37.551Z,99.99
2022-09-12T01:53:37.533Z,99.99
2022-09-12T01:54:37.547Z,99.99
2022-09-12T01:55:37.549Z,99.99
2022-09-12T01:56:37.550Z,99.99
2022-09-12T01:57:37.565Z,99.99
2022-09-12T01:58:37.531Z,99.99
2022-09-12T01:59:37.537Z,99.99
2022-09-12T02:00:37.534Z,99.99
2022-09-12T02:01:37.543Z,99.99
2022-09-12T02:02:37.572Z,99.99
2022-09-12T02:03:37.551Z,99.99
2022-09-12T02:04:37.543Z,99.99
2022-09-12T02:05:37.540Z,99.99
2022-09-12T02:06:37.546Z,99.99
2022-09-12T02:07:37.550Z,99.99
2022-09-12T02:08:37.565Z,99.99
2022-09-12T02:09:37.545Z,99.99
2022-09-12T02:10:37.566Z,99.99
2022-09-12T02:11:37.555Z,99.99
2022-09-12T02:12:37.589Z,99.99
2022-09-12T02:13:37.551Z,99.99
2022-09-12T02:14:37.557Z,99.99
2022-09-12T02:15:37.570Z,99.99
2022-09-12T02:16:37.587Z,99.99
2022-09-12T02:17:37.560Z,99.99
2022-09-12T02:18:37.563Z,99.99
2022-09-12T02:19:37.568Z,99.99
2022-09-12T02:20:48.041Z,99.99
2022-09-12T02:21:37.559Z,99.99
2022-09-12T02:22:37.587Z,99.99
2022-09-12T02:23:37.574Z,99.99
2022-09-12T02:24:37.561Z,99.99
2022-09-12T02:25:37.568Z,99.99
2022-09-12T02:26:37.567Z,99.99
2022-09-12T02:27:37.579Z,99.99
2022-09-12T02:28:37.580Z,99.99
2022-09-12T02:29:37.581Z,99.99
2022-09-12T02:30:37.606Z,99.99
2022-09-12T02:31:37.579Z,99.99
2022-09-12T02:32:37.579Z,99.99
2022-09-12T02:33:37.592Z,99.99
2022-09-12T02:34:37.590Z,99.99
2022-09-12T02:35:37.588Z,99.99
2022-09-12T02:36:37.581Z,99.99
2022-09-12T02:37:37.584Z,99.99
2022-09-12T02:38:37.576Z,99.99
2022-09-12T02:39:38.847Z,99.99
2022-09-12T02:40:37.600Z,99.99
2022-09-12T02:41:37.584Z,99.99
2022-09-12T02:42:37.582Z,99.99
2022-09-12T02:43:37.588Z,99.99
2022-09-12T02:44:37.581Z,99.99
2022-09-12T02:45:37.633Z,99.99
2022-09-12T02:46:37.590Z,99.99
2022-09-12T02:47:37.586Z,99.99
2022-09-12T02:48:37.581Z,99.99
2022-09-12T02:49:37.585Z,99.99
2022-09-12T02:50:37.612Z,99.99
2022-09-12T02:51:37.608Z,99.99
2022-09-12T02:52:37.588Z,99.99
2022-09-12T02:53:37.610Z,99.99
2022-09-12T02:54:37.602Z,99.99
2022-09-12T02:55:37.591Z,99.99
2022-09-12T02:56:37.627Z,99.99
2022-09-12T02:57:37.591Z,99.99
2022-09-12T02:58:37.607Z,99.99
2022-09-12T02:59:37.603Z,99.99
2022-09-12T03:00:37.596Z,99.99
2022-09-12T03:01:37.641Z,99.99
2022-09-12T03:02:37.608Z,99.99
2022-09-12T03:03:42.681Z,99.99
2022-09-12T03:04:37.617Z,99.99
2022-09-12T03:05:37.603Z,99.99
2022-09-12T03:06:37.600Z,99.99
2022-09-12T03:07:37.630Z,99.99
2022-09-12T03:08:37.615Z,99.99
2022-09-12T03:09:37.628Z,99.99
2022-09-12T03:10:37.622Z,99.99
2022-09-12T03:11:37.624Z,99.99
2022-09-12T03:12:37.608Z,99.99
2022-09-12T03:13:37.643Z,99.99
2022-09-12T03:14:37.620Z,99.99
2022-09-12T03:15:37.623Z,99.99
2022-09-12T03:16:37.633Z,99.99
2022-09-12T03:17:37.623Z,99.99
2022-09-12T03:18:37.624Z,99.99
2022-09-12T03:19:37.612Z,99.99
2022-09-12T03:20:37.633Z,99.99
2022-09-12T03:21:37.622Z,99.99
2022-09-12T03:22:37.625Z,99.99
2022-09-12T03:23:37.650Z,99.99
2022-09-12T03:24:37.627Z,99.99
2022-09-12T03:25:37.629Z,99.99
2022-09-12T03:26:37.637Z,99.99
2022-09-12T03:27:37.623Z,99.99
2022-09-12T03:28:37.632Z,99.99
2022-09-12T03:29:37.652Z,99.99
2022-09-12T03:30:37.707Z,99.99
2022-09-12T03:31:37.636Z,99.99
2022-09-12T03:32:37.638Z,99.99
2022-09-12T03:33:37.655Z,99.99
2022-09-12T03:34:37.639Z,99.99
2022-09-12T03:35:37.641Z,99.99
2022-09-12T03:36:37.647Z,99.99
2022-09-12T03:37:37.646Z,99.99
2022-09-12T03:38:37.634Z,99.99
2022-09-12T03:39:37.678Z,99.99
2022-09-12T03:40:37.638Z,99.99
2022-09-12T03:41:37.643Z,99.99
2022-09-12T03:42:37.636Z,99.99
2022-09-12T03:43:37.646Z,99.99
2022-09-12T03:44:37.653Z,99.99
2022-09-12T03:45:37.724Z,99.99
2022-09-12T03:46:37.637Z,99.99
2022-09-12T03:47:37.646Z,99.99
2022-09-12T03:48:37.639Z,99.99
2022-09-12T03:49:37.649Z,99.99
2022-09-12T03:50:37.652Z,99.99
2022-09-12T03:51:37.671Z,99.99
2022-09-12T03:52:37.658Z,99.99
2022-09-12T03:53:37.646Z,99.99
2022-09-12T03:54:37.646Z,99.99
2022-09-12T03:55:37.663Z,99.99
2022-09-12T03:56:37.784Z,99.99
2022-09-12T03:57:37.641Z,99.99
2022-09-12T03:58:37.647Z,99.99
2022-09-12T03:59:37.683Z,99.99
2022-09-12T04:00:37.677Z,99.99
2022-09-12T04:01:37.668Z,99.99
2022-09-12T04:02:37.672Z,99.99
2022-09-12T04:03:37.647Z,99.99
2022-09-12T04:04:37.658Z,99.99
2022-09-12T04:05:37.677Z,99.99
2022-09-12T04:06:37.664Z,99.99
2022-09-12T04:07:37.690Z,99.99
2022-09-12T04:08:37.665Z,99.99
2022-09-12T04:09:37.665Z,99.99
2022-09-12T04:10:37.667Z,99.99
2022-09-12T04:11:37.656Z,99.99
2022-09-12T04:12:37.668Z,99.99
2022-09-12T04:13:37.678Z,99.99
2022-09-12T04:14:37.674Z,99.99
2022-09-12T04:15:37.657Z,99.99
2022-09-12T04:16:37.697Z,99.99
2022-09-12T04:17:37.666Z,99.99
2022-09-12T04:18:37.673Z,99.99
2022-09-12T04:19:37.687Z,99.99
2022-09-12T04:20:37.671Z,99.99
2022-09-12T04:21:37.661Z,99.99
2022-09-12T04:22:37.693Z,99.99
2022-09-12T04:23:37.673Z,99.99
2022-09-12T04:24:37.676Z,99.99
2022-09-12T04:25:37.686Z,99.99
2022-09-12T04:26:37.675Z,99.99
2022-09-12T04:27:37.682Z,99.99
2022-09-12T04:28:37.696Z,99.99
2022-09-12T04:29:37.681Z,99.99
2022-09-12T04:30:37.745Z,99.99
2022-09-12T04:31:37.671Z,99.99
2022-09-12T04:32:37.686Z,99.99
2022-09-12T04:33:37.668Z,99.99
2022-09-12T04:34:37.689Z,99.99
2022-09-12T04:35:37.681Z,99.99
2022-09-12T04:36:37.692Z,99.99
2022-09-12T04:37:37.694Z,99.99
2022-09-12T04:38:37.690Z,99.99
2022-09-12T04:39:37.714Z,99.99
2022-09-12T04:40:37.680Z,99.99
2022-09-12T04:41:37.695Z,99.99
2022-09-12T04:42:37.686Z,99.99
2022-09-12T04:43:37.682Z,99.99
2022-09-12T04:44:37.684Z,99.99
2022-09-12T04:45:37.795Z,99.99
2022-09-12T04:46:37.708Z,99.99
2022-09-12T04:47:37.700Z,99.99
2022-09-12T04:48:37.695Z,99.99
2022-09-12T04:49:37.703Z,99.99
2022-09-12T04:50:37.682Z,99.99
2022-09-12T04:51:37.684Z,99.99
2022-09-12T04:52:37.697Z,99.99
2022-09-12T04:53:37.699Z,99.99
2022-09-12T04:54:37.699Z,99.99
2022-09-12T04:55:37.687Z,99.99
2022-09-12T04:56:37.699Z,99.99
2022-09-12T04:57:37.720Z,99.99
2022-09-12T04:58:37.691Z,99.99
2022-09-12T04:59:37.705Z,99.99
2022-09-12T05:00:37.757Z,99.99
2022-09-12T05:01:37.741Z,99.99
2022-09-12T05:02:37.742Z,99.99
2022-09-12T05:03:37.748Z,99.99
2022-09-12T05:04:37.713Z,99.99
2022-09-12T05:05:45.307Z,99.99
2022-09-12T05:06:37.706Z,99.99
2022-09-12T05:07:37.735Z,99.99
2022-09-12T05:08:37.728Z,99.99
2022-09-12T05:09:37.711Z,99.99
2022-09-12T05:10:37.695Z,99.99
2022-09-12T05:12:02.742Z,99.99
2022-09-12T05:12:37.713Z,99.99
2022-09-12T05:13:37.697Z,99.99
2022-09-12T05:14:37.726Z,99.99
2022-09-12T05:15:37.714Z,99.99
2022-09-12T05:16:37.752Z,99.99
2022-09-12T05:17:37.711Z,99.99
2022-09-12T05:18:37.703Z,99.99
2022-09-12T05:19:37.724Z,99.99
2022-09-12T05:20:37.735Z,99.99
2022-09-12T05:21:37.704Z,99.99
2022-09-12T05:22:37.748Z,99.99
2022-09-12T05:23:37.704Z,99.99
2022-09-12T05:24:37.708Z,99.99
2022-09-12T05:25:37.727Z,99.99
2022-09-12T05:26:37.714Z,99.99
2022-09-12T05:27:37.724Z,99.99
2022-09-12T05:28:37.720Z,99.99
2022-09-12T05:29:37.708Z,99.99
2022-09-12T05:30:37.731Z,99.99
2022-09-12T05:31:37.723Z,99.99
2022-09-12T05:32:37.718Z,99.99
2022-09-12T05:33:37.723Z,99.99
2022-09-12T05:34:37.721Z,99.99
2022-09-12T05:35:37.714Z,99.99
2022-09-12T05:36:37.729Z,99.99
2022-09-12T05:37:37.739Z,99.99
2022-09-12T05:38:37.733Z,99.99
2022-09-12T05:39:37.800Z,99.99
2022-09-12T05:40:37.719Z,99.99
2022-09-12T05:41:37.730Z,99.99
2022-09-12T05:42:37.730Z,99.99
2022-09-12T05:43:37.737Z,99.99
2022-09-12T05:44:37.714Z,99.99
2022-09-12T05:45:37.764Z,99.99
2022-09-12T05:46:37.756Z,99.99
2022-09-12T05:47:37.721Z,99.99
2022-09-12T05:48:37.729Z,99.99
2022-09-12T05:49:37.724Z,99.99
2022-09-12T05:50:37.729Z,99.99
2022-09-12T05:51:37.726Z,99.99
2022-09-12T05:52:37.734Z,99.99
2022-09-12T05:53:37.743Z,99.99
2022-09-12T05:54:37.736Z,99.99
2022-09-12T05:55:37.746Z,99.99
2022-09-12T05:56:37.729Z,99.99
2022-09-12T05:57:37.761Z,99.99
2022-09-12T05:58:37.761Z,99.99
2022-09-12T05:59:37.781Z,99.99
2022-09-12T06:00:37.735Z,99.99
2022-09-12T06:01:37.788Z,99.99
2022-09-12T06:02:37.775Z,99.99
2022-09-12T06:03:37.744Z,99.99
2022-09-12T06:04:37.731Z,99.99
2022-09-12T06:05:37.748Z,99.99
2022-09-12T06:06:37.744Z,99.99
2022-09-12T06:07:37.747Z,99.99
2022-09-12T06:08:37.746Z,99.99
2022-09-12T06:09:37.757Z,99.99
2022-09-12T06:10:37.739Z,99.99
2022-09-12T06:11:37.738Z,99.99
2022-09-12T06:12:37.753Z,99.99
2022-09-12T06:13:37.743Z,99.99
2022-09-12T06:14:37.761Z,99.99
2022-09-12T06:15:37.746Z,99.99
2022-09-12T06:16:37.836Z,99.99
2022-09-12T06:17:37.753Z,99.99
2022-09-12T06:18:37.766Z,99.99
2022-09-12T06:19:37.812Z,99.99
2022-09-12T06:20:37.744Z,99.99
2022-09-12T06:21:37.789Z,99.99
2022-09-12T06:22:37.753Z,99.99
2022-09-12T06:23:37.755Z,99.99
2022-09-12T06:24:37.762Z,99.99
2022-09-12T06:25:37.747Z,99.99
2022-09-12T06:26:37.756Z,99.99
2022-09-12T06:27:37.762Z,99.99
2022-09-12T06:28:37.758Z,99.99
2022-09-12T06:29:37.770Z,99.99
2022-09-12T06:30:37.895Z,99.99
2022-09-12T06:31:37.777Z,99.99
2022-09-12T06:32:37.781Z,99.99
2022-09-12T06:33:37.792Z,99.99
2022-09-12T06:34:37.792Z,99.99
2022-09-12T06:35:37.780Z,99.99
2022-09-12T06:36:37.771Z,99.73
2022-09-12T06:37:37.787Z,99.30
2022-09-12T06:38:37.788Z,97.96
2022-09-12T06:39:37.843Z,98.00
2022-09-12T06:40:37.775Z,97.04
2022-09-12T06:41:42.984Z,95.94
2022-09-12T06:42:37.778Z,94.01
2022-09-12T06:43:37.797Z,93.57
2022-09-12T06:44:37.804Z,93.33
2022-09-12T06:45:37.856Z,91.64
2022-09-12T06:46:37.796Z,90.20
2022-09-12T06:47:37.791Z,88.79
2022-09-12T06:48:41.774Z,87.88
2022-09-12T06:49:37.809Z,86.47
2022-09-12T06:50:37.827Z,85.22
2022-09-12T06:51:37.816Z,84.35
2022-09-12T06:52:37.812Z,84.30
2022-09-12T06:53:37.842Z,84.10
2022-09-12T06:54:37.831Z,83.14
2022-09-12T06:55:37.833Z,82.65
2022-09-12T06:56:37.819Z,82.79
2022-09-12T06:57:37.845Z,82.50
2022-09-12T06:58:37.837Z,81.87
2022-09-12T06:59:37.871Z,80.84
2022-09-12T07:00:37.842Z,80.26
2022-09-12T07:01:38.036Z,80.01
2022-09-12T07:02:37.869Z,78.85
2022-09-12T07:03:37.857Z,79.43
2022-09-12T07:04:37.848Z,78.75
2022-09-12T07:05:37.888Z,78.66
2022-09-12T07:06:37.886Z,77.59
2022-09-12T07:07:37.863Z,77.50
2022-09-12T07:08:37.896Z,78.27
2022-09-12T07:09:37.876Z,77.78
2022-09-12T07:10:37.868Z,78.13
2022-09-12T07:11:37.908Z,79.74
2022-09-12T07:12:37.878Z,79.83
2022-09-12T07:13:37.879Z,80.28
2022-09-12T07:14:37.897Z,81.40
2022-09-12T07:15:37.903Z,81.98
2022-09-12T07:16:37.953Z,82.26
2022-09-12T07:17:37.955Z,83.14
2022-09-12T07:18:37.905Z,83.04
2022-09-12T07:19:37.904Z,82.98
2022-09-12T07:20:37.921Z,82.40
2022-09-12T07:21:37.937Z,81.09
2022-09-12T07:22:37.917Z,79.78
2022-09-12T07:23:37.934Z,78.27
2022-09-12T07:24:37.939Z,77.67
2022-09-12T07:25:37.940Z,76.60
2022-09-12T07:26:37.976Z,75.48
2022-09-12T07:27:37.952Z,73.96
2022-09-12T07:28:38.024Z,73.77
2022-09-12T07:29:38.222Z,72.93
2022-09-12T07:30:38.010Z,72.67
2022-09-12T07:31:37.960Z,72.19
2022-09-12T07:32:37.981Z,71.51
2022-09-12T07:33:38.001Z,70.64
2022-09-12T07:34:37.983Z,71.22
2022-09-12T07:35:38.031Z,71.16
2022-09-12T07:36:37.996Z,70.87
2022-09-12T07:37:38.004Z,70.39
2022-09-12T07:38:38.025Z,69.32
2022-09-12T07:39:38.106Z,68.48
2022-09-12T07:40:38.019Z,68.87
2022-09-12T07:41:38.015Z,68.67
2022-09-12T07:42:38.020Z,68.08
2022-09-12T07:43:38.066Z,68.08
2022-09-12T07:44:38.100Z,68.08
2022-09-12T07:45:38.048Z,68.18
2022-09-12T07:46:38.057Z,67.89
2022-09-12T07:47:38.059Z,67.60
2022-09-12T07:48:38.087Z,67.70
2022-09-12T07:49:38.078Z,67.80
2022-09-12T07:50:40.926Z,68.38
2022-09-12T07:51:38.086Z,68.08
2022-09-12T07:52:38.087Z,68.38
2022-09-12T07:53:38.099Z,68.28
2022-09-12T07:54:38.131Z,67.89
2022-09-12T07:55:38.113Z,68.18
2022-09-12T07:56:39.317Z,68.02
2022-09-12T07:57:38.117Z,67.99
2022-09-12T07:58:38.133Z,67.80
2022-09-12T07:59:51.892Z,67.50
2022-09-12T08:00:38.156Z,67.41
2022-09-12T08:01:38.178Z,66.63
2022-09-12T08:02:38.275Z,67.41
2022-09-12T08:03:38.168Z,67.37
2022-09-12T08:04:38.176Z,67.37
2022-09-12T08:05:38.202Z,67.37
2022-09-12T08:06:38.187Z,66.99
2022-09-12T08:07:38.201Z,67.28
2022-09-12T08:08:39.503Z,66.60
2022-09-12T08:09:38.210Z,67.28
2022-09-12T08:10:38.226Z,68.05
2022-09-12T08:11:38.232Z,68.05
2022-09-12T08:12:38.219Z,68.15
2022-09-12T08:13:38.276Z,68.63
2022-09-12T08:14:38.256Z,70.77
2022-09-12T08:15:38.276Z,69.32
2022-09-12T08:16:38.253Z,69.12
2022-09-12T08:17:38.263Z,68.25
2022-09-12T08:18:38.291Z,67.83
2022-09-12T08:19:38.275Z,67.40
2022-09-12T08:20:38.281Z,68.08
2022-09-12T08:21:38.291Z,69.64
2022-09-12T08:22:38.288Z,70.12
2022-09-12T08:23:38.331Z,70.12
2022-09-12T08:24:38.311Z,70.31
2022-09-12T08:25:38.314Z,70.03
2022-09-12T08:26:38.325Z,71.67
2022-09-12T08:27:38.330Z,71.67
2022-09-12T08:28:38.356Z,71.19
2022-09-12T08:29:38.381Z,70.67
2022-09-12T08:30:38.364Z,70.09
2022-09-12T08:31:38.356Z,69.50
2022-09-12T08:32:38.367Z,69.41
2022-09-12T08:33:38.379Z,71.06
2022-09-12T08:34:38.391Z,72.12
2022-09-12T08:35:38.390Z,71.44
2022-09-12T08:36:38.398Z,71.06
2022-09-12T08:37:38.401Z,71.25
2022-09-12T08:38:38.405Z,71.83
2022-09-12T08:39:38.501Z,70.92
2022-09-12T08:40:38.426Z,70.83
2022-09-12T08:41:38.433Z,71.89
2022-09-12T08:42:38.429Z,72.47
2022-09-12T08:43:38.435Z,72.77
2022-09-12T08:44:38.450Z,72.38
2022-09-12T08:45:38.516Z,72.86
2022-09-12T08:46:38.462Z,71.80
2022-09-12T08:47:38.470Z,72.18
2022-09-12T08:48:38.473Z,71.86
2022-09-12T08:49:38.477Z,73.02
2022-09-12T08:50:38.516Z,72.24
2022-09-12T08:51:38.500Z,72.24
2022-09-12T08:52:38.506Z,72.73
2022-09-12T08:53:38.509Z,73.02
2022-09-12T08:54:38.515Z,73.02
2022-09-12T08:55:38.533Z,73.79
2022-09-12T08:56:38.540Z,73.69
2022-09-12T08:57:38.547Z,73.31
2022-09-12T08:58:39.405Z,72.63
2022-09-12T08:59:38.563Z,71.56
2022-09-12T09:00:38.554Z,72.92
2022-09-12T09:01:38.611Z,73.99
2022-09-12T09:02:38.592Z,72.92
2022-09-12T09:03:38.581Z,73.89
2022-09-12T09:04:38.578Z,73.31
2022-09-12T09:05:38.594Z,73.11
2022-09-12T09:06:38.611Z,72.67
2022-09-12T09:07:38.596Z,72.63
2022-09-12T09:08:38.605Z,73.02
2022-09-12T09:09:38.616Z,73.41
2022-09-12T09:10:38.618Z,73.02
2022-09-12T09:11:38.633Z,72.44
2022-09-12T09:12:38.631Z,72.60
2022-09-12T09:13:38.628Z,72.79
2022-09-12T09:14:38.657Z,74.34
2022-09-12T09:15:38.679Z,73.24
2022-09-12T09:16:38.678Z,73.43
2022-09-12T09:17:38.647Z,74.07
2022-09-12T09:18:38.681Z,72.91
2022-09-12T09:19:38.749Z,72.81
2022-09-12T09:20:38.669Z,73.68
2022-09-12T09:21:38.685Z,74.36
2022-09-12T09:22:38.677Z,73.97
2022-09-12T09:23:38.714Z,74.27
2022-09-12T09:24:38.726Z,74.07
2022-09-12T09:25:38.727Z,74.46
2022-09-12T09:26:38.731Z,75.23
2022-09-12T09:27:41.235Z,75.13
2022-09-12T09:28:38.715Z,74.75
2022-09-12T09:29:38.760Z,75.23
2022-09-12T09:30:38.813Z,74.59
2022-09-12T09:33:19.397Z,73.43
2022-09-12T09:34:27.034Z,73.14
2022-09-12T09:35:27.568Z,72.27
2022-09-12T09:36:26.949Z,72.33
2022-09-12T09:37:19.441Z,73.97
2022-09-12T09:38:20.076Z,75.23
2022-09-12T09:39:19.414Z,75.13
2022-09-12T09:40:19.570Z,74.65
2022-09-12T09:41:19.436Z,74.42
2022-09-12T09:42:19.607Z,74.42
2022-09-12T09:43:19.444Z,73.52
2022-09-12T09:44:19.462Z,74.19
2022-09-12T09:45:19.450Z,73.90
2022-09-12T09:46:19.537Z,75.35
2022-09-12T09:47:19.515Z,74.83
2022-09-12T09:48:19.488Z,75.64
2022-09-12T09:49:19.486Z,74.48
2022-09-12T09:50:19.480Z,75.06
2022-09-12T09:51:19.498Z,73.32
2022-09-12T09:52:19.499Z,73.36
2022-09-12T09:53:19.524Z,73.74
2022-09-12T09:54:19.537Z,73.88
2022-09-12T09:55:19.538Z,74.69
2022-09-12T09:56:23.220Z,74.79
2022-09-12T09:57:19.552Z,73.57
2022-09-12T09:58:19.547Z,72.40
2022-09-12T09:59:19.548Z,72.63
2022-09-12T10:00:19.569Z,72.57
2022-09-12T10:01:19.614Z,72.67
2022-09-12T10:02:23.665Z,71.80
2022-09-12T10:03:19.583Z,70.92
2022-09-12T10:04:19.639Z,70.73
2022-09-12T10:05:19.708Z,70.44
2022-09-12T10:06:19.609Z,70.40
2022-09-12T10:07:19.657Z,70.98
2022-09-12T10:08:19.669Z,70.89
2022-09-12T10:09:19.632Z,71.62
2022-09-12T10:10:19.642Z,72.11
2022-09-12T10:11:19.728Z,72.46
2022-09-12T10:12:19.661Z,73.24
2022-09-12T10:13:19.673Z,72.85
2022-09-12T10:14:19.703Z,74.21
2022-09-12T10:15:19.682Z,73.49
2022-09-12T10:16:19.753Z,73.39
2022-09-12T10:17:19.723Z,72.33
2022-09-12T10:18:19.706Z,72.58
2022-09-12T10:19:19.731Z,72.49
2022-09-12T10:20:21.981Z,72.88
2022-09-12T10:21:19.753Z,74.23
2022-09-12T10:22:19.760Z,74.48
2022-09-12T10:23:19.764Z,74.96
2022-09-12T10:24:19.769Z,75.06
2022-09-12T10:25:19.774Z,75.26
2022-09-12T10:26:19.799Z,75.31
2022-09-12T10:27:19.811Z,76.37
2022-09-12T10:28:19.795Z,75.60
2022-09-12T10:29:19.806Z,76.09
2022-09-12T10:30:19.813Z,75.31
2022-09-12T10:31:19.869Z,75.79
2022-09-12T10:32:19.825Z,75.79
2022-09-12T10:33:19.830Z,75.51
2022-09-12T10:34:19.842Z,74.73
2022-09-12T10:35:19.827Z,73.77
2022-09-12T10:36:19.853Z,74.16
2022-09-12T10:37:19.867Z,73.22
2022-09-12T10:38:19.873Z,71.68
2022-09-12T10:39:20.550Z,71.84
2022-09-12T10:40:19.911Z,69.98
2022-09-12T10:41:19.895Z,67.14
2022-09-12T10:42:23.371Z,65.14
2022-09-12T10:43:19.908Z,64.40
2022-09-12T10:44:19.920Z,63.17
2022-09-12T10:45:19.941Z,61.74
2022-09-12T10:46:19.967Z,61.77
2022-09-12T10:47:19.928Z,60.71
2022-09-12T10:48:19.949Z,61.22
2022-09-12T10:49:19.956Z,61.29
2022-09-12T10:50:22.879Z,61.81
2022-09-12T10:51:19.986Z,62.16
2022-09-12T10:52:19.969Z,62.82
2022-09-12T10:53:19.991Z,64.07
2022-09-12T10:54:19.989Z,65.37
2022-09-12T10:55:20.014Z,68.47
2022-09-12T10:56:20.031Z,68.33
2022-09-12T10:57:20.033Z,68.01
2022-09-12T10:58:20.050Z,70.53
2022-09-12T10:59:20.457Z,71.50
2022-09-12T11:00:20.057Z,71.30
2022-09-12T11:01:20.128Z,72.66
2022-09-12T11:02:20.110Z,74.30
2022-09-12T11:03:20.080Z,75.65
2022-09-12T11:04:20.109Z,76.78
2022-09-12T11:05:22.735Z,76.97
2022-09-12T11:06:20.127Z,76.68
2022-09-12T11:07:20.146Z,73.30
2022-09-12T11:08:20.128Z,75.04
2022-09-12T11:09:20.137Z,74.21
2022-09-12T11:10:20.133Z,72.85
2022-09-12T11:11:20.169Z,71.08
2022-09-12T11:12:20.162Z,71.46
2022-09-12T11:13:20.169Z,73.59
2022-09-12T11:14:20.195Z,72.88
2022-09-12T11:15:20.178Z,73.07
2022-09-12T11:16:20.211Z,74.17
2022-09-12T11:17:20.197Z,73.63
2022-09-12T11:18:20.198Z,69.11
2022-09-12T11:19:20.279Z,67.46
2022-09-12T11:20:20.229Z,67.98
2022-09-12T11:21:20.224Z,66.78
2022-09-12T11:22:20.250Z,65.98
2022-09-12T11:23:20.250Z,66.05
2022-09-12T11:24:20.286Z,67.30
2022-09-12T11:25:20.280Z,69.27
2022-09-12T11:26:20.271Z,69.46
2022-09-12T11:27:20.268Z,69.01
2022-09-12T11:28:20.278Z,68.08
2022-09-12T11:29:20.281Z,66.66
2022-09-12T11:30:20.341Z,66.30
2022-09-12T11:31:20.311Z,65.63
2022-09-12T11:32:20.374Z,67.40
2022-09-12T11:33:20.313Z,67.24
2022-09-12T11:34:20.368Z,68.12
2022-09-12T11:35:20.382Z,69.15
2022-09-12T11:36:20.331Z,66.56
2022-09-12T11:37:20.375Z,64.07
2022-09-12T11:38:20.358Z,62.16
2022-09-12T11:39:20.361Z,61.51
2022-09-12T11:40:20.413Z,61.96
2022-09-12T11:41:20.387Z,59.35
2022-09-12T11:42:20.502Z,58.60
2022-09-12T11:43:20.377Z,58.34
2022-09-12T11:44:20.392Z,57.29
2022-09-12T11:45:20.400Z,56.54
2022-09-12T11:46:20.460Z,57.20
2022-09-12T11:47:20.402Z,55.41
2022-09-12T11:48:20.425Z,55.65
2022-09-12T11:49:20.427Z,54.97
2022-09-12T11:50:20.424Z,55.46
2022-09-12T11:51:20.449Z,56.26
2022-09-12T11:52:20.440Z,57.46
2022-09-12T11:53:20.469Z,57.65
2022-09-12T11:54:20.450Z,57.78
2022-09-12T11:55:20.476Z,58.24
2022-09-12T11:56:20.479Z,57.14
2022-09-12T11:57:20.514Z,55.75
2022-09-12T11:58:20.501Z,58.12
2022-09-12T11:59:20.490Z,56.46
2022-09-12T12:00:20.505Z,56.29
2022-09-12T12:01:20.516Z,55.51
2022-09-12T12:02:20.567Z,54.31
2022-09-12T12:03:20.577Z,56.26
2022-09-12T12:04:20.608Z,56.04
2022-09-12T12:05:20.555Z,55.43
2022-09-12T12:06:20.543Z,55.96
2022-09-12T12:07:20.562Z,57.10
2022-09-12T12:08:20.588Z,58.56
2022-09-12T12:09:20.594Z,60.77
2022-09-12T12:10:20.570Z,60.28
2022-09-12T12:11:20.584Z,61.05
2022-09-12T12:12:20.599Z,62.51
2022-09-12T12:13:20.610Z,60.28
2022-09-12T12:14:20.626Z,59.99
2022-09-12T12:15:20.624Z,60.67
2022-09-12T12:16:20.688Z,61.02
2022-09-12T12:17:20.627Z,61.61
2022-09-12T12:18:20.632Z,64.04
2022-09-12T12:19:20.652Z,63.17
2022-09-12T12:20:20.646Z,61.44
2022-09-12T12:21:20.647Z,60.05
2022-09-12T12:22:20.676Z,60.22
2022-09-12T12:23:20.669Z,60.12
2022-09-12T12:24:20.701Z,60.31
2022-09-12T12:25:22.371Z,62.07
2022-09-12T12:26:20.707Z,61.58
2022-09-12T12:27:20.708Z,61.58
2022-09-12T12:28:20.707Z,61.87
2022-09-12T12:29:20.734Z,60.68
2022-09-12T12:30:20.715Z,60.48
2022-09-12T12:31:20.762Z,61.35
2022-09-12T12:32:20.734Z,59.70
2022-09-12T12:33:20.736Z,58.70
2022-09-12T12:34:20.754Z,58.97
2022-09-12T12:35:20.744Z,60.16
2022-09-12T12:36:20.785Z,60.71
2022-09-12T12:37:20.820Z,60.20
2022-09-12T12:38:20.765Z,61.17
2022-09-12T12:39:20.796Z,61.75
2022-09-12T12:40:20.885Z,61.75
2022-09-12T12:41:20.804Z,62.43
2022-09-12T12:42:22.449Z,61.94
2022-09-12T12:43:20.803Z,62.01
2022-09-12T12:44:20.817Z,61.59
2022-09-12T12:45:20.817Z,62.69
2022-09-12T12:46:20.871Z,63.92
2022-09-12T12:47:20.863Z,64.98
2022-09-12T12:48:20.832Z,64.72
2022-09-12T12:49:20.857Z,64.72
2022-09-12T12:50:21.071Z,65.01
2022-09-12T12:51:20.851Z,63.65
2022-09-12T12:52:20.887Z,62.88
2022-09-12T12:53:20.878Z,62.56
2022-09-12T12:54:20.882Z,62.95